sensor_id;sensor_type;location;lat;lon;timestamp;pressure;altitude;pressure_sealevel;temperature;humidity
8069;BME280;4077;43.702;24.896;2023-08-30T00:02:04;98432.09;;;22.61;100.00
8069;BME280;4077;43.702;24.896;2023-08-30T00:04:29;98430.22;;;22.63;100.00
8069;BME280;4077;43.702;24.896;2023-08-30T00:06:55;98438.88;;;22.81;100.00
8069;BME280;4077;43.702;24.896;2023-08-30T00:09:20;98429.97;;;22.83;100.00
8069;BME280;4077;43.702;24.896;2023-08-30T00:11:46;98425.31;;;22.73;100.00
8069;BME280;4077;43.702;24.896;2023-08-30T00:14:11;98440.25;;;22.72;100.00
8069;BME280;4077;43.702;24.896;2023-08-30T00:16:37;98421.91;;;22.71;100.00
8069;BME280;4077;43.702;24.896;2023-08-30T00:19:03;98443.97;;;22.84;100.00
8069;BME280;4077;43.702;24.896;2023-08-30T00:21:29;98446.88;;;22.79;100.00
8069;BME280;4077;43.702;24.896;2023-08-30T00:23:55;98443.78;;;22.71;100.00
8069;BME280;4077;43.702;24.896;2023-08-30T00:26:20;98448.38;;;22.67;100.00
8069;BME280;4077;43.702;24.896;2023-08-30T00:28:46;98444.22;;;22.63;100.00
8069;BME280;4077;43.702;24.896;2023-08-30T00:31:11;98431.38;;;22.57;100.00
8069;BME280;4077;43.702;24.896;2023-08-30T00:33:37;98444.38;;;22.60;100.00
8069;BME280;4077;43.702;24.896;2023-08-30T00:36:04;98456.31;;;22.50;100.00
8069;BME280;4077;43.702;24.896;2023-08-30T00:38:33;98462.78;;;22.45;100.00
8069;BME280;4077;43.702;24.896;2023-08-30T00:40:59;98463.13;;;22.38;100.00
8069;BME280;4077;43.702;24.896;2023-08-30T00:43:24;98456.53;;;22.30;100.00
8069;BME280;4077;43.702;24.896;2023-08-30T00:45:50;98466.28;;;22.28;100.00
8069;BME280;4077;43.702;24.896;2023-08-30T00:48:17;98464.69;;;22.25;100.00
8069;BME280;4077;43.702;24.896;2023-08-30T00:50:45;98457.22;;;22.18;100.00
8069;BME280;4077;43.702;24.896;2023-08-30T00:53:11;98465.69;;;22.05;100.00
8069;BME280;4077;43.702;24.896;2023-08-30T00:55:37;98457.72;;;22.07;100.00
8069;BME280;4077;43.702;24.896;2023-08-30T00:58:04;98446.44;;;21.88;100.00
8069;BME280;4077;43.702;24.896;2023-08-30T01:00:30;98445.50;;;21.89;100.00
8069;BME280;4077;43.702;24.896;2023-08-30T01:02:56;98463.47;;;21.98;100.00
8069;BME280;4077;43.702;24.896;2023-08-30T01:05:22;98459.19;;;21.95;100.00
8069;BME280;4077;43.702;24.896;2023-08-30T01:07:49;98464.13;;;22.01;100.00
8069;BME280;4077;43.702;24.896;2023-08-30T01:10:14;98458.03;;;22.01;100.00
8069;BME280;4077;43.702;24.896;2023-08-30T01:12:52;98442.88;;;21.89;100.00
8069;BME280;4077;43.702;24.896;2023-08-30T01:15:23;98457.34;;;21.97;100.00
8069;BME280;4077;43.702;24.896;2023-08-30T01:17:51;98452.41;;;21.91;100.00
8069;BME280;4077;43.702;24.896;2023-08-30T01:20:18;98452.00;;;21.81;100.00
8069;BME280;4077;43.702;24.896;2023-08-30T01:23:03;98445.25;;;21.77;100.00
8069;BME280;4077;43.702;24.896;2023-08-30T01:26:32;98452.50;;;21.72;100.00
8069;BME280;4077;43.702;24.896;2023-08-30T01:28:46;98459.28;;;21.59;100.00
8069;BME280;4077;43.702;24.896;2023-08-30T01:31:13;98456.13;;;21.52;100.00
8069;BME280;4077;43.702;24.896;2023-08-30T01:33:41;98445.53;;;21.37;100.00
8069;BME280;4077;43.702;24.896;2023-08-30T01:36:07;98441.59;;;21.26;100.00
8069;BME280;4077;43.702;24.896;2023-08-30T01:38:33;98454.88;;;21.23;100.00
8069;BME280;4077;43.702;24.896;2023-08-30T01:41:00;98456.13;;;21.16;100.00
8069;BME280;4077;43.702;24.896;2023-08-30T01:43:27;98461.84;;;21.06;100.00
8069;BME280;4077;43.702;24.896;2023-08-30T01:45:57;98463.03;;;21.00;100.00
8069;BME280;4077;43.702;24.896;2023-08-30T01:48:24;98470.53;;;20.89;100.00
8069;BME280;4077;43.702;24.896;2023-08-30T01:50:50;98462.31;;;20.77;100.00
8069;BME280;4077;43.702;24.896;2023-08-30T01:53:16;98476.22;;;20.80;100.00
8069;BME280;4077;43.702;24.896;2023-08-30T01:55:42;98455.00;;;20.65;100.00
8069;BME280;4077;43.702;24.896;2023-08-30T01:58:09;98480.03;;;20.72;100.00
8069;BME280;4077;43.702;24.896;2023-08-30T02:00:37;98478.31;;;20.71;100.00
8069;BME280;4077;43.702;24.896;2023-08-30T02:03:10;98476.78;;;20.67;100.00
8069;BME280;4077;43.702;24.896;2023-08-30T02:05:37;98466.41;;;20.64;100.00
8069;BME280;4077;43.702;24.896;2023-08-30T02:08:10;98487.50;;;20.82;100.00
8069;BME280;4077;43.702;24.896;2023-08-30T02:10:41;98483.28;;;20.77;100.00
8069;BME280;4077;43.702;24.896;2023-08-30T02:13:07;98468.56;;;20.75;100.00
8069;BME280;4077;43.702;24.896;2023-08-30T02:15:35;98465.84;;;20.95;100.00
8069;BME280;4077;43.702;24.896;2023-08-30T02:18:03;98457.63;;;21.03;100.00
8069;BME280;4077;43.702;24.896;2023-08-30T02:20:30;98437.69;;;20.99;100.00
8069;BME280;4077;43.702;24.896;2023-08-30T02:22:59;98470.78;;;21.20;100.00
8069;BME280;4077;43.702;24.896;2023-08-30T02:25:25;98460.44;;;21.17;100.00
8069;BME280;4077;43.702;24.896;2023-08-30T02:27:50;98463.81;;;21.19;100.00
8069;BME280;4077;43.702;24.896;2023-08-30T02:30:16;98432.94;;;21.07;100.00
8069;BME280;4077;43.702;24.896;2023-08-30T02:32:41;98459.59;;;21.17;100.00
8069;BME280;4077;43.702;24.896;2023-08-30T02:35:07;98451.06;;;21.12;100.00
8069;BME280;4077;43.702;24.896;2023-08-30T02:37:33;98447.13;;;21.03;100.00
8069;BME280;4077;43.702;24.896;2023-08-30T02:39:58;98447.59;;;21.11;100.00
8069;BME280;4077;43.702;24.896;2023-08-30T02:42:24;98453.28;;;21.21;100.00
8069;BME280;4077;43.702;24.896;2023-08-30T02:44:51;98456.75;;;21.21;100.00
8069;BME280;4077;43.702;24.896;2023-08-30T02:47:17;98448.06;;;21.19;100.00
8069;BME280;4077;43.702;24.896;2023-08-30T02:49:42;98446.38;;;21.18;100.00
8069;BME280;4077;43.702;24.896;2023-08-30T02:52:08;98444.53;;;21.20;100.00
8069;BME280;4077;43.702;24.896;2023-08-30T02:54:33;98448.91;;;21.20;100.00
8069;BME280;4077;43.702;24.896;2023-08-30T02:56:58;98451.78;;;21.15;100.00
8069;BME280;4077;43.702;24.896;2023-08-30T02:59:24;98443.56;;;21.04;100.00
8069;BME280;4077;43.702;24.896;2023-08-30T03:01:49;98445.44;;;21.02;100.00
8069;BME280;4077;43.702;24.896;2023-08-30T03:04:15;98438.78;;;20.95;100.00
8069;BME280;4077;43.702;24.896;2023-08-30T03:06:40;98416.97;;;20.75;100.00
8069;BME280;4077;43.702;24.896;2023-08-30T03:09:06;98420.50;;;20.74;100.00
8069;BME280;4077;43.702;24.896;2023-08-30T03:11:31;98436.72;;;20.83;100.00
8069;BME280;4077;43.702;24.896;2023-08-30T03:13:57;98443.53;;;20.87;100.00
8069;BME280;4077;43.702;24.896;2023-08-30T03:16:22;98447.06;;;20.86;100.00
8069;BME280;4077;43.702;24.896;2023-08-30T03:18:48;98437.94;;;20.75;100.00
8069;BME280;4077;43.702;24.896;2023-08-30T03:21:13;98442.19;;;20.78;100.00
8069;BME280;4077;43.702;24.896;2023-08-30T03:23:41;98441.75;;;20.68;100.00
8069;BME280;4077;43.702;24.896;2023-08-30T03:26:11;98453.03;;;20.70;100.00
8069;BME280;4077;43.702;24.896;2023-08-30T03:28:38;98452.53;;;20.62;100.00
8069;BME280;4077;43.702;24.896;2023-08-30T03:31:20;98441.91;;;20.46;100.00
8069;BME280;4077;43.702;24.896;2023-08-30T03:33:47;98450.69;;;20.45;100.00
8069;BME280;4077;43.702;24.896;2023-08-30T03:36:14;98446.53;;;20.40;100.00
8069;BME280;4077;43.702;24.896;2023-08-30T03:38:40;98428.09;;;20.22;100.00
8069;BME280;4077;43.702;24.896;2023-08-30T03:41:06;98451.34;;;20.30;100.00
8069;BME280;4077;43.702;24.896;2023-08-30T03:43:32;98457.41;;;20.31;100.00
8069;BME280;4077;43.702;24.896;2023-08-30T03:45:59;98462.75;;;20.29;100.00
8069;BME280;4077;43.702;24.896;2023-08-30T03:48:25;98466.34;;;20.27;100.00
8069;BME280;4077;43.702;24.896;2023-08-30T03:50:51;98471.38;;;20.31;100.00
8069;BME280;4077;43.702;24.896;2023-08-30T03:53:16;98465.84;;;20.18;100.00
8069;BME280;4077;43.702;24.896;2023-08-30T03:55:41;98478.56;;;20.07;100.00
8069;BME280;4077;43.702;24.896;2023-08-30T03:58:07;98480.91;;;20.13;100.00
8069;BME280;4077;43.702;24.896;2023-08-30T04:00:36;98494.00;;;20.34;100.00
8069;BME280;4077;43.702;24.896;2023-08-30T04:03:02;98498.47;;;20.32;100.00
8069;BME280;4077;43.702;24.896;2023-08-30T04:05:32;98498.16;;;20.38;100.00
8069;BME280;4077;43.702;24.896;2023-08-30T04:07:58;98498.16;;;20.38;100.00
8069;BME280;4077;43.702;24.896;2023-08-30T04:10:24;98504.91;;;20.43;100.00
8069;BME280;4077;43.702;24.896;2023-08-30T04:12:49;98495.69;;;20.35;100.00
8069;BME280;4077;43.702;24.896;2023-08-30T04:15:15;98517.84;;;20.48;100.00
8069;BME280;4077;43.702;24.896;2023-08-30T04:17:40;98514.47;;;20.46;100.00
8069;BME280;4077;43.702;24.896;2023-08-30T04:20:06;98522.19;;;20.49;100.00
8069;BME280;4077;43.702;24.896;2023-08-30T04:22:32;98527.41;;;20.49;100.00
8069;BME280;4077;43.702;24.896;2023-08-30T04:24:59;98512.72;;;20.45;100.00
8069;BME280;4077;43.702;24.896;2023-08-30T04:27:26;98523.09;;;20.48;100.00
8069;BME280;4077;43.702;24.896;2023-08-30T04:29:52;98535.53;;;20.43;100.00
8069;BME280;4077;43.702;24.896;2023-08-30T04:32:17;98529.63;;;20.38;100.00
8069;BME280;4077;43.702;24.896;2023-08-30T04:34:43;98527.16;;;20.35;100.00
8069;BME280;4077;43.702;24.896;2023-08-30T04:37:08;98530.53;;;20.37;100.00
8069;BME280;4077;43.702;24.896;2023-08-30T04:39:34;98537.56;;;20.36;100.00
8069;BME280;4077;43.702;24.896;2023-08-30T04:41:59;98526.38;;;20.33;100.00
8069;BME280;4077;43.702;24.896;2023-08-30T04:44:25;98532.78;;;20.26;100.00
8069;BME280;4077;43.702;24.896;2023-08-30T04:46:53;98531.41;;;20.17;100.00
8069;BME280;4077;43.702;24.896;2023-08-30T04:49:21;98488.63;;;19.96;100.00
8069;BME280;4077;43.702;24.896;2023-08-30T04:51:47;98535.78;;;20.16;100.00
8069;BME280;4077;43.702;24.896;2023-08-30T04:54:12;98522.94;;;20.10;100.00
8069;BME280;4077;43.702;24.896;2023-08-30T04:56:39;98530.56;;;20.16;100.00
8069;BME280;4077;43.702;24.896;2023-08-30T04:59:04;98518.19;;;20.20;100.00
8069;BME280;4077;43.702;24.896;2023-08-30T05:01:30;98512.69;;;20.26;100.00
8069;BME280;4077;43.702;24.896;2023-08-30T05:03:55;98503.03;;;20.27;100.00
8069;BME280;4077;43.702;24.896;2023-08-30T05:06:21;98507.38;;;20.28;100.00
8069;BME280;4077;43.702;24.896;2023-08-30T05:08:46;98510.16;;;20.43;100.00
8069;BME280;4077;43.702;24.896;2023-08-30T05:11:12;98503.41;;;20.38;100.00
8069;BME280;4077;43.702;24.896;2023-08-30T05:13:37;98515.16;;;20.49;100.00
8069;BME280;4077;43.702;24.896;2023-08-30T05:16:03;98500.75;;;20.39;100.00
8069;BME280;4077;43.702;24.896;2023-08-30T05:18:28;98488.81;;;20.53;100.00
8069;BME280;4077;43.702;24.896;2023-08-30T05:20:54;98516.03;;;20.69;100.00
8069;BME280;4077;43.702;24.896;2023-08-30T05:23:19;98523.13;;;20.86;100.00
8069;BME280;4077;43.702;24.896;2023-08-30T05:25:45;98518.88;;;20.83;100.00
8069;BME280;4077;43.702;24.896;2023-08-30T05:28:10;98507.31;;;20.68;100.00
8069;BME280;4077;43.702;24.896;2023-08-30T05:30:36;98508.38;;;20.64;100.00
8069;BME280;4077;43.702;24.896;2023-08-30T05:33:01;98509.25;;;20.84;100.00
8069;BME280;4077;43.702;24.896;2023-08-30T05:35:27;98493.28;;;20.69;100.00
8069;BME280;4077;43.702;24.896;2023-08-30T05:37:53;98495.69;;;20.93;100.00
8069;BME280;4077;43.702;24.896;2023-08-30T05:40:18;98515.69;;;21.14;100.00
8069;BME280;4077;43.702;24.896;2023-08-30T05:42:44;98510.47;;;21.14;100.00
8069;BME280;4077;43.702;24.896;2023-08-30T05:45:10;98467.81;;;21.09;100.00
8069;BME280;4077;43.702;24.896;2023-08-30T05:47:35;98508.84;;;21.48;100.00
8069;BME280;4077;43.702;24.896;2023-08-30T05:50:01;98523.41;;;21.55;100.00
8069;BME280;4077;43.702;24.896;2023-08-30T05:52:26;98534.03;;;21.52;100.00
8069;BME280;4077;43.702;24.896;2023-08-30T05:54:52;98525.59;;;21.45;100.00
8069;BME280;4077;43.702;24.896;2023-08-30T05:57:17;98527.59;;;21.76;100.00
8069;BME280;4077;43.702;24.896;2023-08-30T05:59:43;98506.16;;;21.49;100.00
8069;BME280;4077;43.702;24.896;2023-08-30T06:02:08;98527.09;;;21.51;100.00
8069;BME280;4077;43.702;24.896;2023-08-30T06:04:34;98519.69;;;21.59;100.00
8069;BME280;4077;43.702;24.896;2023-08-30T06:06:59;98523.13;;;21.78;100.00
8069;BME280;4077;43.702;24.896;2023-08-30T06:09:25;98549.44;;;22.13;100.00
8069;BME280;4077;43.702;24.896;2023-08-30T06:11:50;98546.81;;;22.30;100.00
8069;BME280;4077;43.702;24.896;2023-08-30T06:14:16;98544.63;;;22.21;100.00
8069;BME280;4077;43.702;24.896;2023-08-30T06:16:41;98524.44;;;22.04;100.00
8069;BME280;4077;43.702;24.896;2023-08-30T06:19:10;98510.28;;;22.07;100.00
8069;BME280;4077;43.702;24.896;2023-08-30T06:21:36;98516.03;;;22.15;100.00
8069;BME280;4077;43.702;24.896;2023-08-30T06:24:01;98507.50;;;22.27;100.00
8069;BME280;4077;43.702;24.896;2023-08-30T06:26:26;98489.25;;;22.57;100.00
8069;BME280;4077;43.702;24.896;2023-08-30T06:28:52;98539.53;;;23.33;100.00
8069;BME280;4077;43.702;24.896;2023-08-30T06:31:17;98537.84;;;23.94;100.00
8069;BME280;4077;43.702;24.896;2023-08-30T06:33:43;98540.91;;;24.46;100.00
8069;BME280;4077;43.702;24.896;2023-08-30T06:36:09;98533.72;;;25.34;100.00
8069;BME280;4077;43.702;24.896;2023-08-30T06:38:37;98553.59;;;25.81;100.00
8069;BME280;4077;43.702;24.896;2023-08-30T06:41:02;98545.66;;;25.54;100.00
8069;BME280;4077;43.702;24.896;2023-08-30T06:43:27;98559.13;;;25.22;100.00
8069;BME280;4077;43.702;24.896;2023-08-30T06:45:53;98547.91;;;25.04;100.00
8069;BME280;4077;43.702;24.896;2023-08-30T06:48:18;98560.25;;;24.90;100.00
8069;BME280;4077;43.702;24.896;2023-08-30T06:50:44;98557.69;;;24.88;100.00
8069;BME280;4077;43.702;24.896;2023-08-30T06:53:09;98552.63;;;24.71;100.00
8069;BME280;4077;43.702;24.896;2023-08-30T06:55:35;98558.28;;;24.79;100.00
8069;BME280;4077;43.702;24.896;2023-08-30T06:58:02;98571.28;;;24.68;100.00
8069;BME280;4077;43.702;24.896;2023-08-30T07:00:28;98574.88;;;24.67;100.00
8069;BME280;4077;43.702;24.896;2023-08-30T07:02:53;98571.06;;;24.56;100.00
8069;BME280;4077;43.702;24.896;2023-08-30T07:05:19;98557.28;;;23.77;100.00
8069;BME280;4077;43.702;24.896;2023-08-30T07:07:44;98543.97;;;23.94;100.00
8069;BME280;4077;43.702;24.896;2023-08-30T07:10:10;98556.03;;;23.98;100.00
8069;BME280;4077;43.702;24.896;2023-08-30T07:12:35;98557.69;;;24.15;100.00
8069;BME280;4077;43.702;24.896;2023-08-30T07:15:01;98574.13;;;24.79;100.00
8069;BME280;4077;43.702;24.896;2023-08-30T07:17:28;98593.25;;;24.68;100.00
8069;BME280;4077;43.702;24.896;2023-08-30T07:19:53;98607.84;;;24.60;100.00
8069;BME280;4077;43.702;24.896;2023-08-30T07:22:19;98610.75;;;24.25;100.00
8069;BME280;4077;43.702;24.896;2023-08-30T07:24:45;98626.25;;;24.15;100.00
8069;BME280;4077;43.702;24.896;2023-08-30T07:27:10;98612.44;;;24.26;100.00
8069;BME280;4077;43.702;24.896;2023-08-30T07:29:38;98626.31;;;24.29;100.00
8069;BME280;4077;43.702;24.896;2023-08-30T07:32:08;98588.84;;;23.63;100.00
8069;BME280;4077;43.702;24.896;2023-08-30T07:34:34;98562.03;;;23.07;100.00
8069;BME280;4077;43.702;24.896;2023-08-30T07:36:59;98555.84;;;22.75;100.00
8069;BME280;4077;43.702;24.896;2023-08-30T07:39:25;98570.38;;;22.82;100.00
8069;BME280;4077;43.702;24.896;2023-08-30T07:41:50;98584.38;;;22.83;100.00
8069;BME280;4077;43.702;24.896;2023-08-30T07:44:16;98597.44;;;22.84;100.00
8069;BME280;4077;43.702;24.896;2023-08-30T07:46:41;98595.53;;;22.71;100.00
8069;BME280;4077;43.702;24.896;2023-08-30T07:49:07;98589.03;;;22.45;100.00
8069;BME280;4077;43.702;24.896;2023-08-30T07:51:32;98577.38;;;21.97;100.00
8069;BME280;4077;43.702;24.896;2023-08-30T07:53:58;98570.91;;;21.68;100.00
8069;BME280;4077;43.702;24.896;2023-08-30T07:56:23;98578.91;;;21.47;100.00
8069;BME280;4077;43.702;24.896;2023-08-30T07:58:49;98583.03;;;21.34;100.00
8069;BME280;4077;43.702;24.896;2023-08-30T08:01:14;98580.63;;;21.29;100.00
8069;BME280;4077;43.702;24.896;2023-08-30T08:03:39;98572.22;;;21.21;100.00
8069;BME280;4077;43.702;24.896;2023-08-30T08:06:06;98573.78;;;21.25;100.00
8069;BME280;4077;43.702;24.896;2023-08-30T08:08:32;98569.03;;;21.34;100.00
8069;BME280;4077;43.702;24.896;2023-08-30T08:10:59;98565.84;;;21.46;100.00
8069;BME280;4077;43.702;24.896;2023-08-30T08:13:25;98575.22;;;21.51;100.00
8069;BME280;4077;43.702;24.896;2023-08-30T08:15:50;98579.16;;;21.60;100.00
8069;BME280;4077;43.702;24.896;2023-08-30T08:18:15;98586.28;;;21.58;100.00
8069;BME280;4077;43.702;24.896;2023-08-30T08:20:41;98571.91;;;21.65;100.00
8069;BME280;4077;43.702;24.896;2023-08-30T08:23:08;98581.72;;;21.98;100.00
8069;BME280;4077;43.702;24.896;2023-08-30T08:25:33;98570.59;;;22.27;100.00
8069;BME280;4077;43.702;24.896;2023-08-30T08:27:59;98589.78;;;22.47;100.00
8069;BME280;4077;43.702;24.896;2023-08-30T08:30:24;98580.34;;;22.43;100.00
8069;BME280;4077;43.702;24.896;2023-08-30T08:32:49;98578.63;;;22.42;100.00
8069;BME280;4077;43.702;24.896;2023-08-30T08:35:15;98572.47;;;22.25;100.00
8069;BME280;4077;43.702;24.896;2023-08-30T08:37:41;98530.38;;;22.08;100.00
8069;BME280;4077;43.702;24.896;2023-08-30T08:40:07;98579.25;;;22.29;100.00
8069;BME280;4077;43.702;24.896;2023-08-30T08:42:36;98575.28;;;22.55;100.00
8069;BME280;4077;43.702;24.896;2023-08-30T08:45:03;98579.09;;;22.83;100.00
8069;BME280;4077;43.702;24.896;2023-08-30T08:47:32;98583.09;;;23.07;100.00
8069;BME280;4077;43.702;24.896;2023-08-30T08:49:58;98582.59;;;23.32;100.00
8069;BME280;4077;43.702;24.896;2023-08-30T08:52:25;98581.41;;;23.54;100.00
8069;BME280;4077;43.702;24.896;2023-08-30T08:54:51;98573.44;;;23.71;100.00
8069;BME280;4077;43.702;24.896;2023-08-30T08:57:17;98581.69;;;23.65;100.00
8069;BME280;4077;43.702;24.896;2023-08-30T08:59:44;98574.44;;;23.53;100.00
8069;BME280;4077;43.702;24.896;2023-08-30T09:02:12;98575.47;;;23.82;100.00
8069;BME280;4077;43.702;24.896;2023-08-30T09:04:39;98582.44;;;24.13;100.00
8069;BME280;4077;43.702;24.896;2023-08-30T09:07:04;98578.41;;;24.37;100.00
8069;BME280;4077;43.702;24.896;2023-08-30T09:09:30;98574.47;;;24.44;100.00
8069;BME280;4077;43.702;24.896;2023-08-30T09:11:56;98568.03;;;24.34;100.00
8069;BME280;4077;43.702;24.896;2023-08-30T09:14:21;98566.91;;;24.22;100.00
8069;BME280;4077;43.702;24.896;2023-08-30T09:17:01;98568.41;;;24.42;100.00
8069;BME280;4077;43.702;24.896;2023-08-30T09:19:26;98566.00;;;24.68;100.00
8069;BME280;4077;43.702;24.896;2023-08-30T09:21:53;98567.69;;;24.69;100.00
8069;BME280;4077;43.702;24.896;2023-08-30T09:24:19;98567.41;;;24.88;100.00
8069;BME280;4077;43.702;24.896;2023-08-30T09:26:52;98568.38;;;24.72;100.00
8069;BME280;4077;43.702;24.896;2023-08-30T09:29:19;98559.22;;;24.78;100.00
8069;BME280;4077;43.702;24.896;2023-08-30T09:31:45;98569.53;;;25.38;100.00
8069;BME280;4077;43.702;24.896;2023-08-30T09:34:11;98575.56;;;26.21;100.00
8069;BME280;4077;43.702;24.896;2023-08-30T09:36:38;98590.34;;;27.02;100.00
8069;BME280;4077;43.702;24.896;2023-08-30T09:39:11;98590.72;;;27.46;100.00
8069;BME280;4077;43.702;24.896;2023-08-30T09:41:41;98577.56;;;27.45;100.00
8069;BME280;4077;43.702;24.896;2023-08-30T09:44:15;98569.72;;;26.94;100.00
8069;BME280;4077;43.702;24.896;2023-08-30T09:46:52;98557.56;;;26.79;100.00
8069;BME280;4077;43.702;24.896;2023-08-30T09:49:20;98559.41;;;26.26;100.00
8069;BME280;4077;43.702;24.896;2023-08-30T09:51:47;98550.97;;;25.81;100.00
8069;BME280;4077;43.702;24.896;2023-08-30T09:54:18;98549.03;;;25.56;100.00
8069;BME280;4077;43.702;24.896;2023-08-30T09:56:45;98540.31;;;25.41;100.00
8069;BME280;4077;43.702;24.896;2023-08-30T09:59:11;98543.34;;;25.35;100.00
8069;BME280;4077;43.702;24.896;2023-08-30T10:01:42;98542.94;;;25.68;100.00
8069;BME280;4077;43.702;24.896;2023-08-30T10:04:08;98540.84;;;25.73;100.00
8069;BME280;4077;43.702;24.896;2023-08-30T10:06:39;98542.59;;;25.60;100.00
8069;BME280;4077;43.702;24.896;2023-08-30T10:09:06;98543.94;;;25.80;100.00
8069;BME280;4077;43.702;24.896;2023-08-30T10:11:36;98542.03;;;26.09;100.00
8069;BME280;4077;43.702;24.896;2023-08-30T10:14:06;98543.63;;;26.24;100.00
8069;BME280;4077;43.702;24.896;2023-08-30T10:16:43;98549.69;;;26.39;100.00
8069;BME280;4077;43.702;24.896;2023-08-30T10:19:17;98544.31;;;26.40;100.00
8069;BME280;4077;43.702;24.896;2023-08-30T10:21:47;98544.72;;;26.47;100.00
8069;BME280;4077;43.702;24.896;2023-08-30T10:24:15;98546.00;;;26.41;100.00
8069;BME280;4077;43.702;24.896;2023-08-30T10:26:43;98550.13;;;26.45;100.00
8069;BME280;4077;43.702;24.896;2023-08-30T10:29:10;98553.41;;;26.75;100.00
8069;BME280;4077;43.702;24.896;2023-08-30T10:31:38;98554.56;;;26.83;100.00
8069;BME280;4077;43.702;24.896;2023-08-30T10:34:13;98559.75;;;27.10;100.00
8069;BME280;4077;43.702;24.896;2023-08-30T10:36:41;98568.06;;;27.30;100.00
8069;BME280;4077;43.702;24.896;2023-08-30T10:39:12;98555.47;;;27.33;100.00
8069;BME280;4077;43.702;24.896;2023-08-30T10:41:39;98555.59;;;27.32;98.95
8069;BME280;4077;43.702;24.896;2023-08-30T10:44:19;98556.34;;;27.21;100.00
8069;BME280;4077;43.702;24.896;2023-08-30T10:46:52;98557.41;;;27.18;100.00
8069;BME280;4077;43.702;24.896;2023-08-30T10:49:18;98550.91;;;27.22;100.00
8069;BME280;4077;43.702;24.896;2023-08-30T10:51:44;98553.97;;;27.29;100.00
8069;BME280;4077;43.702;24.896;2023-08-30T10:54:17;98552.78;;;27.46;100.00
8069;BME280;4077;43.702;24.896;2023-08-30T10:57:02;98555.00;;;27.76;100.00
8069;BME280;4077;43.702;24.896;2023-08-30T10:59:28;98546.78;;;28.03;92.22
8069;BME280;4077;43.702;24.896;2023-08-30T11:01:54;98550.44;;;28.13;89.01
8069;BME280;4077;43.702;24.896;2023-08-30T11:04:21;98552.88;;;28.27;82.89
8069;BME280;4077;43.702;24.896;2023-08-30T11:06:50;98546.00;;;28.25;82.92
8069;BME280;4077;43.702;24.896;2023-08-30T11:09:17;98550.34;;;28.15;84.60
8069;BME280;4077;43.702;24.896;2023-08-30T11:11:43;98546.84;;;28.14;83.79
8069;BME280;4077;43.702;24.896;2023-08-30T11:14:10;98536.91;;;28.05;82.06
8069;BME280;4077;43.702;24.896;2023-08-30T11:16:36;98532.59;;;28.15;79.18
8069;BME280;4077;43.702;24.896;2023-08-30T11:19:03;98546.31;;;28.44;73.34
8069;BME280;4077;43.702;24.896;2023-08-30T11:21:53;98544.38;;;28.46;68.23
8069;BME280;4077;43.702;24.896;2023-08-30T11:24:18;98537.66;;;28.42;70.13
8069;BME280;4077;43.702;24.896;2023-08-30T11:26:43;98529.81;;;28.63;69.10
8069;BME280;4077;43.702;24.896;2023-08-30T11:29:09;98528.13;;;28.73;65.28
8069;BME280;4077;43.702;24.896;2023-08-30T11:31:35;98528.25;;;28.83;66.87
8069;BME280;4077;43.702;24.896;2023-08-30T11:34:01;98533.66;;;28.81;66.21
8069;BME280;4077;43.702;24.896;2023-08-30T11:36:31;98528.97;;;28.85;64.94
8069;BME280;4077;43.702;24.896;2023-08-30T11:38:57;98520.66;;;28.89;64.94
8069;BME280;4077;43.702;24.896;2023-08-30T11:41:23;98513.44;;;28.92;63.36
8069;BME280;4077;43.702;24.896;2023-08-30T11:43:49;98508.56;;;28.85;64.90
8069;BME280;4077;43.702;24.896;2023-08-30T11:46:16;98510.84;;;28.79;61.31
8069;BME280;4077;43.702;24.896;2023-08-30T11:48:42;98497.94;;;28.63;60.35
8069;BME280;4077;43.702;24.896;2023-08-30T11:51:08;98501.22;;;28.55;58.81
8069;BME280;4077;43.702;24.896;2023-08-30T11:53:34;98510.75;;;28.58;59.25
8069;BME280;4077;43.702;24.896;2023-08-30T11:56:01;98500.09;;;28.47;61.89
8069;BME280;4077;43.702;24.896;2023-08-30T11:58:27;98510.91;;;28.21;62.05
8069;BME280;4077;43.702;24.896;2023-08-30T12:00:53;98500.63;;;28.17;59.22
8069;BME280;4077;43.702;24.896;2023-08-30T12:03:22;98502.34;;;28.29;58.77
8069;BME280;4077;43.702;24.896;2023-08-30T12:05:49;98486.69;;;28.37;56.67
8069;BME280;4077;43.702;24.896;2023-08-30T12:08:26;98502.56;;;28.26;58.23
8069;BME280;4077;43.702;24.896;2023-08-30T12:10:52;98498.47;;;28.22;59.10
8069;BME280;4077;43.702;24.896;2023-08-30T12:13:29;98492.69;;;28.28;58.58
8069;BME280;4077;43.702;24.896;2023-08-30T12:15:58;98495.22;;;28.29;58.04
8069;BME280;4077;43.702;24.896;2023-08-30T12:18:25;98488.94;;;28.19;57.40
8069;BME280;4077;43.702;24.896;2023-08-30T12:21:00;98487.03;;;28.21;58.64
8069;BME280;4077;43.702;24.896;2023-08-30T12:23:28;98484.63;;;28.29;57.58
8069;BME280;4077;43.702;24.896;2023-08-30T12:28:27;98484.38;;;28.21;57.69
8069;BME280;4077;43.702;24.896;2023-08-30T12:30:53;98467.94;;;28.16;57.73
8069;BME280;4077;43.702;24.896;2023-08-30T12:33:18;98480.97;;;28.08;57.33
8069;BME280;4077;43.702;24.896;2023-08-30T12:35:44;98479.00;;;27.99;56.58
8069;BME280;4077;43.702;24.896;2023-08-30T12:38:09;98470.94;;;28.12;54.81
8069;BME280;4077;43.702;24.896;2023-08-30T12:40:37;98466.25;;;28.15;55.33
8069;BME280;4077;43.702;24.896;2023-08-30T12:43:03;98473.34;;;28.03;55.19
8069;BME280;4077;43.702;24.896;2023-08-30T12:45:29;98474.31;;;28.14;53.49
8069;BME280;4077;43.702;24.896;2023-08-30T12:47:54;98469.63;;;28.17;54.69
8069;BME280;4077;43.702;24.896;2023-08-30T12:50:21;98458.53;;;28.23;53.03
8069;BME280;4077;43.702;24.896;2023-08-30T12:52:47;98461.25;;;28.34;52.55
8069;BME280;4077;43.702;24.896;2023-08-30T12:55:13;98454.59;;;28.40;51.87
8069;BME280;4077;43.702;24.896;2023-08-30T12:57:39;98449.91;;;28.44;53.87
8069;BME280;4077;43.702;24.896;2023-08-30T13:00:05;98457.38;;;28.50;52.19
8069;BME280;4077;43.702;24.896;2023-08-30T13:02:30;98447.59;;;28.39;51.99
8069;BME280;4077;43.702;24.896;2023-08-30T13:04:56;98446.53;;;28.42;51.63